Time;durP1;ratioP1;P1;durP2;ratioP2;P2;SDS_P1;SDS_P2;PMS_P1;PMS_P2;Temp;Humidity;BMP_temperature;BMP_pressure;BME280_temperature;BME280_humidity;BME280_pressure;Samples;Min_cycle;Max_cycle;Signal;HPM_P1;HPM_P2
2021/01/05 00:00:21;;;;;;;2.63;2.13;;;;;;;8.06;76.89;93633.75;5035239;28;20188;-75
2021/01/05 00:02:47;;;;;;;1.80;1.53;;;;;;;8.26;74.58;93654.94;5034964;28;20544;-71
2021/01/05 00:05:14;;;;;;;1.10;1.10;;;;;;;8.14;75.77;93655.91;5034944;28;20415;-75
2021/01/05 00:07:39;;;;;;;1.00;1.00;;;;;;;8.10;75.05;93655.84;5034498;28;20502;-74
2021/01/05 00:10:05;;;;;;;3.07;1.37;;;;;;;7.94;74.07;93656.00;5034960;28;20429;-76
2021/01/05 00:12:31;;;;;;;1.00;1.00;;;;;;;7.98;74.25;93655.31;5034318;28;20259;-75
2021/01/05 00:14:56;;;;;;;1.10;1.00;;;;;;;8.01;74.11;93654.56;5034734;28;20419;-72
2021/01/05 00:17:22;;;;;;;1.13;1.03;;;;;;;7.90;74.34;93644.53;5034712;28;20245;-72
2021/01/05 00:19:48;;;;;;;1.33;1.17;;;;;;;7.71;75.08;93643.88;5034549;28;20561;-73
2021/01/05 00:22:14;;;;;;;1.30;1.20;;;;;;;7.64;75.71;93647.97;5034449;28;20176;-74
2021/01/05 00:24:39;;;;;;;3.40;1.13;;;;;;;7.47;77.07;93648.44;5034548;28;20180;-73
2021/01/05 00:27:05;;;;;;;2.00;1.20;;;;;;;7.71;75.64;93654.50;5033150;28;20547;-72
2021/01/05 00:29:31;;;;;;;1.33;1.27;;;;;;;7.47;75.90;93653.00;5034002;28;20303;-71
2021/01/05 00:32:09;;;;;;;1.40;1.30;;;;;;;7.65;75.30;93665.44;5034510;28;20207;-73
2021/01/05 00:34:35;;;;;;;3.53;1.80;;;;;;;7.51;75.76;93667.84;5034315;28;20268;-75
2021/01/05 00:37:01;;;;;;;2.13;1.87;;;;;;;7.47;76.12;93658.31;5034229;28;20427;-74
2021/01/05 00:39:26;;;;;;;1.00;0.90;;;;;;;7.35;76.39;93653.91;5034129;28;20180;-73
2021/01/05 00:41:51;;;;;;;2.10;1.00;;;;;;;7.19;77.85;93663.91;5034159;28;20491;-74
2021/01/05 00:44:17;;;;;;;1.30;1.07;;;;;;;7.34;77.33;93665.66;5033945;28;20185;-72
2021/01/05 00:46:42;;;;;;;1.37;1.27;;;;;;;7.43;77.35;93661.66;5034274;28;20173;-73
2021/01/05 00:49:08;;;;;;;1.63;1.20;;;;;;;7.65;75.63;93675.28;5033944;28;20215;-74
2021/01/05 00:51:33;;;;;;;2.30;1.33;;;;;;;7.69;74.73;93681.44;5034098;28;20168;-76
2021/01/05 00:53:59;;;;;;;3.00;1.13;;;;;;;7.48;77.19;93689.81;5033782;28;20267;-73
2021/01/05 00:56:24;;;;;;;2.67;1.60;;;;;;;7.52;75.95;93687.19;5033873;28;20180;-71
2021/01/05 00:58:50;;;;;;;1.80;1.30;;;;;;;7.55;75.57;93674.00;5033737;28;20673;-77
2021/01/05 01:01:15;;;;;;;1.67;1.37;;;;;;;7.69;76.38;93686.75;5033781;28;20168;-74
2021/01/05 01:03:41;;;;;;;3.93;1.50;;;;;;;7.68;76.47;93701.91;5033893;28;20199;-75
2021/01/05 01:06:06;;;;;;;2.97;1.33;;;;;;;7.46;76.26;93684.06;5033585;28;20172;-72
2021/01/05 01:08:32;;;;;;;2.30;1.57;;;;;;;7.61;77.13;93701.78;5033788;28;20226;-75
2021/01/05 01:10:57;;;;;;;4.60;1.50;;;;;;;7.83;75.67;93702.91;5033505;28;20229;-73
2021/01/05 01:13:23;;;;;;;2.97;1.90;;;;;;;7.72;76.54;93711.84;5033414;28;20582;-72
2021/01/05 01:15:49;;;;;;;2.53;2.00;;;;;;;7.67;75.20;93708.34;5033473;28;20173;-72
2021/01/05 01:18:14;;;;;;;4.33;1.73;;;;;;;7.68;77.08;93714.41;5033483;28;20213;-73
2021/01/05 01:20:40;;;;;;;4.00;1.70;;;;;;;7.72;77.33;93717.16;5033473;28;20180;-72
2021/01/05 01:23:05;;;;;;;3.43;2.17;;;;;;;7.66;76.76;93708.72;5033359;28;20173;-75
2021/01/05 01:25:31;;;;;;;4.10;2.10;;;;;;;7.78;76.17;93723.69;5033573;28;20223;-71
2021/01/05 01:27:56;;;;;;;2.83;2.10;;;;;;;7.85;74.88;93727.22;5032812;28;20228;-74
2021/01/05 01:30:22;;;;;;;3.20;2.30;;;;;;;7.71;76.49;93728.91;5033236;28;20183;-71
2021/01/05 01:32:47;;;;;;;4.07;2.17;;;;;;;7.86;75.66;93733.34;5032933;28;20211;-73
2021/01/05 01:35:13;;;;;;;5.23;2.50;;;;;;;7.76;75.77;93731.28;5033291;28;20207;-76
2021/01/05 01:37:39;;;;;;;3.73;2.00;;;;;;;7.76;76.93;93745.31;5031863;28;20188;-74
2021/01/05 01:40:06;;;;;;;3.77;2.07;;;;;;;7.64;75.80;93737.53;5031871;28;20675;-76
2021/01/05 01:42:31;;;;;;;2.17;1.40;;;;;;;7.83;75.24;93739.34;5032893;28;20178;-73
2021/01/05 01:44:57;;;;;;;3.37;1.70;;;;;;;7.81;74.85;93746.91;5032850;28;20432;-72
2021/01/05 01:47:23;;;;;;;7.50;1.67;;;;;;;7.73;76.23;93745.25;5033112;28;20750;-73
2021/01/05 01:49:57;;;;;;;1.60;1.37;;;;;;;7.80;76.02;93748.03;5031992;28;20575;-75
2021/01/05 01:52:54;;;;;;;1.23;1.13;;;;;;;7.82;74.82;93753.78;5031850;28;20421;-75
2021/01/05 01:55:41;;;;;;;1.90;1.60;;;;;;;7.80;76.04;93745.38;5031716;28;20423;-76
2021/01/05 01:58:30;;;;;;;1.10;1.00;;;;;;;7.86;75.39;93759.91;5032566;28;20415;-75
2021/01/05 02:01:18;;;;;;;1.73;1.10;;;;;;;7.95;74.83;93771.81;5032532;28;20506;-73
2021/01/05 02:03:55;;;;;;;1.80;1.30;;;;;;;7.84;73.83;93764.81;5031477;28;20492;-76
2021/01/05 02:06:44;;;;;;;1.37;1.27;;;;;;;7.88;74.08;93770.94;5032294;28;20423;-71
2021/01/05 02:09:37;;;;;;;1.23;1.20;;;;;;;7.96;74.50;93767.28;5031733;28;20431;-75
2021/01/05 02:12:50;;;;;;;1.90;1.70;;;;;;;7.79;72.93;93773.81;5030927;28;20455;-73
2021/01/05 02:15:38;;;;;;;1.40;1.20;;;;;;;8.03;73.92;93777.28;5017757;28;20466;-72
2021/01/05 02:18:12;;;;;;;1.20;1.10;;;;;;;7.82;75.20;93770.47;4999430;28;20481;-72
2021/01/05 02:21:01;;;;;;;1.07;1.00;;;;;;;7.91;75.81;93773.69;5013677;28;20427;-72
2021/01/05 02:23:36;;;;;;;0.83;0.83;;;;;;;7.89;75.24;93785.78;5030328;28;20439;-74
2021/01/05 02:26:46;;;;;;;1.03;0.90;;;;;;;7.81;73.13;93776.91;5013600;28;20418;-73
2021/01/05 02:29:16;;;;;;;1.00;0.90;;;;;;;7.79;75.12;93784.47;4971249;28;20467;-73
2021/01/05 02:31:48;;;;;;;1.00;1.00;;;;;;;7.88;74.98;93790.31;4970993;28;20533;-71
2021/01/05 02:34:24;;;;;;;1.00;1.00;;;;;;;7.83;74.61;93787.94;4971228;28;21010;-74
2021/01/05 02:37:05;;;;;;;1.27;1.03;;;;;;;7.96;74.83;93785.88;4971240;28;20951;-71
2021/01/05 02:39:38;;;;;;;1.10;1.10;;;;;;;7.94;73.61;93782.81;4970828;28;20816;-74
2021/01/05 02:42:41;;;;;;;1.60;1.30;;;;;;;7.92;73.80;93785.06;4971222;28;20418;-73
2021/01/05 02:45:17;;;;;;;1.17;1.10;;;;;;;7.82;75.95;93785.66;4970945;28;20422;-74
2021/01/05 02:47:54;;;;;;;1.20;1.10;;;;;;;7.83;75.54;93792.50;4971056;28;20815;-72
2021/01/05 02:50:31;;;;;;;1.30;1.20;;;;;;;7.81;74.66;93795.53;4971063;28;20428;-73
2021/01/05 02:53:33;;;;;;;1.53;1.30;;;;;;;8.08;73.12;93790.25;4951490;29;20466;-73
2021/01/05 02:56:39;;;;;;;1.40;1.30;;;;;;;8.13;71.42;93798.69;4951781;29;20415;-73
2021/01/05 02:59:46;;;;;;;1.60;1.30;;;;;;;7.87;73.11;93796.75;4935616;29;20786;-73
2021/01/05 03:02:36;;;;;;;1.27;1.17;;;;;;;8.00;72.73;93797.34;4935670;29;20430;-72
2021/01/05 03:05:06;;;;;;;1.20;1.20;;;;;;;7.94;72.77;93801.44;4997933;28;20419;-73
2021/01/05 03:07:31;;;;;;;1.20;1.10;;;;;;;7.95;73.41;93794.97;5030457;28;20415;-72
2021/01/05 03:10:09;;;;;;;1.60;1.50;;;;;;;7.95;72.53;93787.78;5030264;28;20422;-72
2021/01/05 03:12:54;;;;;;;1.53;1.30;;;;;;;8.08;71.43;93788.38;5030391;28;20165;-71
2021/01/05 03:15:41;;;;;;;1.03;1.03;;;;;;;8.13;70.86;93796.03;5031405;28;20423;-71
2021/01/05 03:18:25;;;;;;;1.40;1.30;;;;;;;8.11;69.62;93798.28;5031329;28;20443;-72
2021/01/05 03:20:59;;;;;;;1.43;1.30;;;;;;;8.04;71.66;93803.50;5031479;28;20521;-71
2021/01/05 03:23:24;;;;;;;1.47;1.30;;;;;;;7.91;73.19;93786.19;5030589;28;21007;-73
2021/01/05 03:25:50;;;;;;;2.07;1.67;;;;;;;7.98;72.25;93798.84;5034393;28;20423;-71
2021/01/05 03:28:19;;;;;;;2.33;1.80;;;;;;;8.13;70.76;93806.69;5017589;28;20318;-74
2021/01/05 03:31:09;;;;;;;1.50;1.40;;;;;;;8.25;70.58;93805.75;5035596;28;20176;-73
2021/01/05 03:33:35;;;;;;;4.00;1.53;;;;;;;8.03;70.05;93786.03;5032967;28;20466;-72
2021/01/05 03:36:00;;;;;;;1.40;1.30;;;;;;;8.14;69.85;93808.22;5016939;28;20462;-71
2021/01/05 03:38:26;;;;;;;1.20;1.10;;;;;;;8.21;68.91;93813.66;5033076;28;20242;-73
2021/01/05 03:40:51;;;;;;;1.50;1.40;;;;;;;8.32;69.18;93816.50;5033405;28;20183;-75
2021/01/05 03:43:17;;;;;;;1.60;1.37;;;;;;;8.19;70.38;93820.44;5016815;28;20184;-72
2021/01/05 03:45:42;;;;;;;1.27;1.17;;;;;;;8.27;69.64;93821.34;5033346;28;20246;-75
2021/01/05 03:48:08;;;;;;;1.40;1.30;;;;;;;8.21;69.60;93826.19;5032897;28;20627;-73
2021/01/05 03:50:33;;;;;;;1.17;1.17;;;;;;;8.43;68.14;93832.66;5033191;28;20187;-75
2021/01/05 03:52:59;;;;;;;2.87;2.20;;;;;;;8.21;69.32;93836.81;5032885;28;20231;-72
2021/01/05 03:55:24;;;;;;;5.00;2.73;;;;;;;8.11;71.36;93840.06;5033111;28;20172;-73
2021/01/05 03:57:50;;;;;;;5.67;3.20;;;;;;;8.16;71.69;93831.81;5033139;28;20180;-73
2021/01/05 04:00:26;;;;;;;2.57;2.37;;;;;;;8.10;68.57;93839.31;5032715;28;20177;-75
2021/01/05 04:02:56;;;;;;;3.40;2.03;;;;;;;8.04;67.05;93824.78;5032914;28;20174;-72
2021/01/05 04:05:23;;;;;;;3.37;2.00;;;;;;;7.87;64.84;93823.34;5032448;28;20514;-73
2021/01/05 04:07:48;;;;;;;2.83;2.03;;;;;;;7.87;67.84;93835.88;5032731;28;20414;-73
2021/01/05 04:10:14;;;;;;;1.70;1.60;;;;;;;7.83;68.02;93819.84;5018924;28;20508;-73
2021/01/05 04:12:40;;;;;;;2.63;2.20;;;;;;;7.86;68.31;93824.47;5034871;28;20221;-74
2021/01/05 04:15:07;;;;;;;2.57;2.10;;;;;;;8.03;67.37;93827.78;5034604;28;20208;-72
2021/01/05 04:17:32;;;;;;;2.10;2.00;;;;;;;8.11;67.48;93843.50;5034727;28;20173;-72
2021/01/05 04:19:58;;;;;;;3.23;2.50;;;;;;;8.25;65.60;93842.19;5034448;28;20477;-73
2021/01/05 04:22:23;;;;;;;2.40;2.03;;;;;;;8.32;65.46;93835.13;5034427;28;20647;-74
2021/01/05 04:24:49;;;;;;;4.53;2.40;;;;;;;8.39;67.20;93853.09;5034342;28;20638;-74
2021/01/05 04:27:14;;;;;;;3.77;2.80;;;;;;;8.28;68.37;93850.22;5034556;28;20200;-73
2021/01/05 04:29:39;;;;;;;2.97;2.67;;;;;;;8.28;68.67;93854.78;5034290;28;20223;-73
2021/01/05 04:32:05;;;;;;;2.40;2.20;;;;;;;8.14;67.72;93853.44;5034129;28;20662;-71
2021/01/05 04:34:30;;;;;;;3.17;2.43;;;;;;;8.13;66.17;93859.09;5033887;28;20257;-71
2021/01/05 04:36:56;;;;;;;3.17;2.40;;;;;;;8.08;64.65;93865.50;5034085;28;20169;-72
2021/01/05 04:39:21;;;;;;;2.97;2.50;;;;;;;8.29;65.75;93874.94;5034280;28;20669;-75
2021/01/05 04:41:57;;;;;;;11.63;3.33;;;;;;;8.30;63.62;93879.13;5034059;28;20230;-72
2021/01/05 04:44:24;;;;;;;4.13;2.63;;;;;;;8.39;63.84;93883.13;5016524;28;20688;-75
2021/01/05 04:47:04;;;;;;;3.43;2.40;;;;;;;8.48;64.76;93877.59;5047882;28;20613;-73
2021/01/05 04:49:46;;;;;;;3.50;2.83;;;;;;;8.37;65.95;93890.72;5049320;28;20496;-74
2021/01/05 04:52:13;;;;;;;5.87;2.53;;;;;;;8.34;65.67;93888.72;5047871;28;20437;-71
2021/01/05 04:54:49;;;;;;;3.30;2.17;;;;;;;8.28;64.07;93898.09;5040273;28;20498;-73
2021/01/05 04:57:18;;;;;;;4.30;2.43;;;;;;;8.37;62.49;93909.31;5031119;28;20934;-75
2021/01/05 04:59:43;;;;;;;2.93;2.20;;;;;;;8.61;62.17;93918.06;5014104;28;20486;-72
2021/01/05 05:02:23;;;;;;;5.67;3.70;;;;;;;8.62;66.83;93916.94;5013632;28;20833;-73
2021/01/05 05:04:55;;;;;;;5.87;3.83;;;;;;;8.53;68.03;93930.50;5028225;28;20180;-72
2021/01/05 05:07:53;;;;;;;5.57;3.80;;;;;;;8.44;68.77;93925.41;5012335;28;20439;-72
2021/01/05 05:10:36;;;;;;;6.80;4.30;;;;;;;8.36;69.72;93936.25;5027809;28;20434;-72
2021/01/05 05:13:11;;;;;;;7.37;4.33;;;;;;;8.12;70.86;93943.41;5012610;28;20547;-73
2021/01/05 05:16:15;;;;;;;9.93;5.23;;;;;;;8.03;71.86;93950.09;5028815;28;20515;-73
2021/01/05 05:18:49;;;;;;;10.27;5.43;;;;;;;7.95;71.31;93949.16;5018842;28;20418;-71
2021/01/05 05:21:36;;;;;;;8.33;4.70;;;;;;;7.94;71.97;93943.06;5013557;28;20407;-73
2021/01/05 05:24:13;;;;;;;5.63;3.90;;;;;;;8.15;70.51;93947.28;5026390;28;20957;-72
2021/01/05 05:26:44;;;;;;;6.00;2.97;;;;;;;8.27;68.11;93959.63;5028800;28;20490;-72
2021/01/05 05:29:30;;;;;;;2.93;2.63;;;;;;;8.31;64.47;93966.56;5013370;28;20556;-71
2021/01/05 05:31:57;;;;;;;7.67;3.27;;;;;;;8.23;65.39;93963.00;5026988;28;20554;-74
2021/01/05 05:34:27;;;;;;;6.73;3.47;;;;;;;8.30;65.98;93966.91;5013364;28;20565;-71
2021/01/05 05:37:23;;;;;;;5.27;3.07;;;;;;;8.34;64.75;93973.81;5028397;28;20467;-72
2021/01/05 05:40:13;;;;;;;4.03;3.07;;;;;;;8.31;67.04;93979.09;5013448;28;20412;-76
2021/01/05 05:42:49;;;;;;;2.60;2.10;;;;;;;8.03;63.94;93972.13;5013322;28;20531;-73
2021/01/05 05:45:20;;;;;;;2.97;2.10;;;;;;;8.15;62.72;93981.84;5028428;28;20412;-74
2021/01/05 05:47:50;;;;;;;2.93;1.87;;;;;;;8.14;63.32;93980.31;5027590;28;20522;-70
2021/01/05 05:50:23;;;;;;;2.27;1.53;;;;;;;8.06;62.78;93983.94;5011715;28;20522;-73
2021/01/05 05:52:58;;;;;;;2.07;1.63;;;;;;;8.00;62.66;93988.75;5011821;28;20424;-72
2021/01/05 05:55:46;;;;;;;2.10;1.90;;;;;;;7.91;62.65;93996.94;5011604;28;20423;-72
2021/01/05 05:58:14;;;;;;;1.70;1.53;;;;;;;7.98;61.85;93983.03;5012892;28;20554;-73
2021/01/05 06:00:46;;;;;;;3.27;1.70;;;;;;;7.91;61.27;94010.25;5011391;28;20439;-72
2021/01/05 06:03:13;;;;;;;2.03;1.90;;;;;;;7.85;61.58;94008.94;5027684;28;20440;-71
2021/01/05 06:05:38;;;;;;;2.63;1.87;;;;;;;7.77;62.60;94009.94;5012667;28;20511;-72
2021/01/05 06:08:05;;;;;;;1.87;1.67;;;;;;;7.80;61.62;94011.91;5012832;28;20447;-75
2021/01/05 06:10:31;;;;;;;2.87;2.10;;;;;;;7.98;61.93;94019.47;5011287;28;20268;-71
2021/01/05 06:12:56;;;;;;;1.80;1.70;;;;;;;8.06;61.42;94031.78;5012690;28;20455;-71
2021/01/05 06:15:22;;;;;;;3.20;2.33;;;;;;;8.05;61.06;94019.63;5012434;28;20192;-74
2021/01/05 06:17:48;;;;;;;2.10;1.90;;;;;;;8.23;60.78;94029.47;5012551;28;20176;-72
2021/01/05 06:20:14;;;;;;;2.47;2.27;;;;;;;7.97;60.49;94026.69;5012699;28;20165;-77
2021/01/05 06:22:39;;;;;;;2.30;2.10;;;;;;;7.92;60.50;94021.66;5011256;28;20183;-72
2021/01/05 06:25:05;;;;;;;2.90;2.20;;;;;;;7.99;60.56;94029.00;5012629;28;20263;-73
2021/01/05 06:27:31;;;;;;;8.27;2.13;;;;;;;8.05;61.25;94031.03;5010971;28;20193;-72
2021/01/05 06:29:56;;;;;;;2.77;2.20;;;;;;;8.16;61.30;94034.66;5012407;28;20849;-71
2021/01/05 06:32:22;;;;;;;2.63;2.13;;;;;;;8.10;60.10;94035.28;5012191;28;20185;-71
2021/01/05 06:34:47;;;;;;;3.17;2.50;;;;;;;8.21;62.17;94034.38;5012103;28;20247;-73
2021/01/05 06:37:14;;;;;;;2.60;2.40;;;;;;;8.28;60.24;94027.66;5012138;28;20693;-72
2021/01/05 06:39:40;;;;;;;3.00;2.70;;;;;;;8.35;60.40;94039.19;5011428;28;20428;-73
2021/01/05 06:42:05;;;;;;;2.47;2.20;;;;;;;8.18;58.94;94042.28;5012086;28;20424;-74
2021/01/05 06:44:31;;;;;;;3.43;2.53;;;;;;;8.12;59.38;94041.78;5012067;28;20177;-73
2021/01/05 06:46:56;;;;;;;3.73;2.40;;;;;;;8.42;58.98;94055.34;5012019;28;20205;-74
2021/01/05 06:49:26;;;;;;;2.77;2.40;;;;;;;8.10;58.19;94044.03;5011858;28;20667;-72
2021/01/05 06:51:53;;;;;;;3.10;1.97;;;;;;;8.21;58.31;94047.69;5012227;28;20304;-71
2021/01/05 06:54:18;;;;;;;2.07;1.87;;;;;;;8.10;58.95;94048.59;5011770;28;20471;-73
2021/01/05 06:56:53;;;;;;;2.20;2.00;;;;;;;8.20;58.83;94064.00;5012198;28;20435;-70
2021/01/05 06:59:19;;;;;;;4.40;2.70;;;;;;;8.20;58.32;94058.69;5010258;28;20200;-74
2021/01/05 07:01:59;;;;;;;2.77;2.17;;;;;;;8.28;58.10;94070.22;5027008;28;20560;-72
2021/01/05 07:04:24;;;;;;;2.33;2.00;;;;;;;8.18;58.50;94053.69;5021844;28;20172;-75
2021/01/05 07:06:50;;;;;;;2.93;2.33;;;;;;;8.08;57.94;94059.56;5018942;28;20488;-71
2021/01/05 07:09:16;;;;;;;3.40;2.70;;;;;;;8.14;59.12;94063.50;5004430;28;20180;-71
2021/01/05 07:11:42;;;;;;;2.30;2.10;;;;;;;8.33;58.04;94060.06;5010995;28;20241;-72
2021/01/05 07:14:07;;;;;;;2.03;1.83;;;;;;;8.61;57.69;94073.19;5010731;28;20467;-71
2021/01/05 07:16:33;;;;;;;2.10;1.97;;;;;;;8.54;56.76;94081.03;5026386;28;20235;-72
2021/01/05 07:18:58;;;;;;;3.30;2.40;;;;;;;8.58;56.77;94081.09;5011352;28;20184;-71
2021/01/05 07:21:24;;;;;;;3.20;2.57;;;;;;;8.72;57.26;94084.78;5026368;28;20169;-70
2021/01/05 07:23:50;;;;;;;3.00;2.40;;;;;;;8.84;57.44;94093.75;5011573;28;20157;-71
2021/01/05 07:26:16;;;;;;;3.50;2.10;;;;;;;8.54;53.99;94077.59;5010973;28;20169;-71
2021/01/05 07:28:41;;;;;;;1.97;1.83;;;;;;;8.57;54.50;94090.97;5009558;28;20958;-72
2021/01/05 07:31:07;;;;;;;3.27;2.10;;;;;;;8.61;54.73;94085.72;5011012;28;20204;-72
2021/01/05 07:33:32;;;;;;;3.40;2.10;;;;;;;8.48;53.94;94091.19;5011305;28;20674;-73
2021/01/05 07:36:01;;;;;;;2.10;1.90;;;;;;;8.71;54.58;94090.47;5011142;28;20172;-71
2021/01/05 07:38:26;;;;;;;3.73;2.17;;;;;;;8.73;55.21;94099.63;5010550;28;20177;-72
2021/01/05 07:40:51;;;;;;;1.83;1.73;;;;;;;8.57;53.85;94096.28;5011220;28;20486;-72
2021/01/05 07:43:17;;;;;;;5.93;2.50;;;;;;;8.51;54.00;94100.34;5011464;28;20177;-72
2021/01/05 07:45:43;;;;;;;3.20;2.30;;;;;;;8.51;54.28;94096.91;5011112;28;20215;-74
2021/01/05 07:48:08;;;;;;;2.83;2.50;;;;;;;8.71;54.85;94096.56;5011294;28;20188;-73
2021/01/05 07:50:34;;;;;;;2.27;2.00;;;;;;;8.66;55.60;94104.84;5010244;28;20567;-74
2021/01/05 07:53:00;;;;;;;4.57;2.70;;;;;;;8.66;54.34;94102.16;5011125;28;20974;-73
2021/01/05 07:55:26;;;;;;;3.07;2.10;;;;;;;8.57;53.50;94111.47;5011700;28;20211;-72
2021/01/05 07:57:52;;;;;;;3.30;2.40;;;;;;;8.76;54.01;94122.13;5003994;28;20186;-74
2021/01/05 08:00:20;;;;;;;2.10;1.90;;;;;;;8.77;53.46;94115.69;4997717;28;20412;-71
2021/01/05 08:02:45;;;;;;;2.77;2.20;;;;;;;8.78;54.55;94111.91;5002860;28;20453;-72
2021/01/05 08:05:12;;;;;;;2.20;1.87;;;;;;;8.74;53.51;94114.47;4991648;28;20936;-76
2021/01/05 08:07:38;;;;;;;4.90;2.20;;;;;;;8.81;53.44;94119.19;4992423;28;20185;-73
2021/01/05 08:10:07;;;;;;;2.77;2.07;;;;;;;8.93;53.85;94118.25;4996567;28;20797;-74
2021/01/05 08:12:32;;;;;;;4.00;2.10;;;;;;;9.01;52.77;94117.25;5014651;28;20663;-74
2021/01/05 08:14:58;;;;;;;2.37;2.17;;;;;;;9.03;54.50;94120.34;5014865;28;20514;-74
2021/01/05 08:17:23;;;;;;;1.93;1.83;;;;;;;9.10;54.16;94128.47;5015164;28;20169;-71
2021/01/05 08:19:49;;;;;;;3.03;2.13;;;;;;;9.12;54.00;94131.53;5014676;28;20177;-73
2021/01/05 08:22:14;;;;;;;2.10;1.90;;;;;;;9.01;52.24;94134.00;5014783;28;20655;-72
2021/01/05 08:24:40;;;;;;;4.90;2.33;;;;;;;9.12;53.89;94136.09;5014066;28;20185;-71
2021/01/05 08:27:09;;;;;;;3.00;2.43;;;;;;;9.21;53.86;94145.41;4997420;28;20196;-74
2021/01/05 08:29:35;;;;;;;5.13;1.80;;;;;;;9.09;52.15;94145.56;5014217;28;20225;-74
2021/01/05 08:32:00;;;;;;;1.80;1.70;;;;;;;9.23;52.92;94143.16;5014486;28;20526;-74
2021/01/05 08:34:26;;;;;;;2.57;1.80;;;;;;;9.14;52.29;94139.94;5014254;28;20937;-75
2021/01/05 08:36:51;;;;;;;2.63;1.90;;;;;;;9.32;53.21;94134.19;5014407;28;20169;-72
2021/01/05 08:39:17;;;;;;;3.23;2.33;;;;;;;9.37;52.02;94147.19;5014215;28;20169;-72
2021/01/05 08:41:43;;;;;;;1.83;1.60;;;;;;;9.33;51.44;94141.03;5014226;28;20169;-73
2021/01/05 08:44:09;;;;;;;5.53;1.90;;;;;;;9.23;52.14;94137.81;5014352;28;20655;-72
2021/01/05 08:46:34;;;;;;;3.33;1.97;;;;;;;9.32;51.50;94142.16;5014313;28;20208;-75
2021/01/05 08:49:00;;;;;;;8.47;2.17;;;;;;;9.18;52.05;94140.78;5029618;28;20193;-75
2021/01/05 08:51:25;;;;;;;5.43;2.07;;;;;;;9.23;52.33;94137.06;5013842;28;20609;-75
2021/01/05 08:53:51;;;;;;;6.47;2.20;;;;;;;9.37;51.34;94152.50;5013194;28;20201;-75
2021/01/05 08:56:19;;;;;;;4.20;2.33;;;;;;;9.47;50.96;94135.94;5013970;28;20636;-71
2021/01/05 08:58:45;;;;;;;1.77;1.63;;;;;;;9.42;50.98;94150.31;5013985;28;20184;-73
2021/01/05 09:01:10;;;;;;;4.80;1.70;;;;;;;9.58;51.58;94147.53;5011154;28;20507;-74
2021/01/05 09:03:36;;;;;;;1.73;1.63;;;;;;;9.67;51.61;94155.31;5012418;28;20578;-73
2021/01/05 09:06:02;;;;;;;2.50;1.40;;;;;;;9.81;51.09;94161.63;5009529;28;20188;-75
2021/01/05 09:08:30;;;;;;;1.97;1.80;;;;;;;9.69;50.25;94142.38;5011333;28;20204;-74
2021/01/05 09:11:04;;;;;;;5.57;1.53;;;;;;;9.93;48.62;94157.22;5013292;28;20272;-72
2021/01/05 09:13:29;;;;;;;5.50;1.50;;;;;;;10.15;47.96;94159.06;5010221;28;20517;-74
2021/01/05 09:15:55;;;;;;;3.00;1.63;;;;;;;10.36;47.28;94168.56;5012748;28;20432;-72
2021/01/05 09:18:21;;;;;;;2.00;1.80;;;;;;;10.48;45.51;94155.75;5011143;28;20598;-72
2021/01/05 09:20:54;;;;;;;4.10;2.13;;;;;;;10.78;46.03;94152.34;5012755;28;20610;-73
2021/01/05 09:23:23;;;;;;;3.17;1.93;;;;;;;10.97;46.62;94156.75;5013145;28;20208;-72
2021/01/05 09:25:52;;;;;;;3.37;1.90;;;;;;;11.24;45.29;94152.84;5013873;28;20948;-72
2021/01/05 09:28:19;;;;;;;2.03;1.70;;;;;;;11.31;45.23;94146.78;5013297;28;20467;-71
2021/01/05 09:30:48;;;;;;;1.70;1.60;;;;;;;11.60;44.72;94156.59;5013510;28;20458;-72
2021/01/05 09:33:14;;;;;;;1.80;1.63;;;;;;;11.80;44.36;94149.16;5013113;28;20432;-72
2021/01/05 09:35:39;;;;;;;1.87;1.33;;;;;;;11.96;43.30;94158.84;5013418;28;20420;-71
2021/01/05 09:38:08;;;;;;;2.10;1.53;;;;;;;11.97;41.82;94161.16;5028507;28;20173;-74
2021/01/05 09:40:35;;;;;;;2.10;1.67;;;;;;;12.03;42.61;94169.59;5013590;28;20177;-75
2021/01/05 09:43:00;;;;;;;3.77;1.47;;;;;;;11.73;43.28;94173.16;5013271;28;20431;-72
2021/01/05 09:45:26;;;;;;;1.47;1.37;;;;;;;11.80;42.31;94162.53;5013413;28;20420;-72
2021/01/05 09:48:10;;;;;;;2.87;1.60;;;;;;;11.88;42.97;94163.38;5012880;28;20227;-73
2021/01/05 09:50:37;;;;;;;1.80;1.70;;;;;;;12.10;42.42;94158.94;5013479;28;20181;-72
2021/01/05 09:53:02;;;;;;;1.97;1.47;;;;;;;12.29;41.28;94157.91;5012894;28;20792;-72
2021/01/05 09:55:28;;;;;;;4.47;1.70;;;;;;;12.21;42.88;94149.09;5012942;28;20424;-72
2021/01/05 09:57:54;;;;;;;3.13;1.63;;;;;;;12.30;42.36;94140.72;5012910;28;20207;-75
2021/01/05 10:00:20;;;;;;;2.73;1.70;;;;;;;12.26;43.81;94145.28;5013384;28;20690;-74
2021/01/05 10:02:45;;;;;;;4.30;1.47;;;;;;;12.26;43.63;94146.06;5013053;28;20193;-72
2021/01/05 10:05:12;;;;;;;2.40;1.40;;;;;;;12.34;42.35;94152.97;5012995;28;20477;-75
2021/01/05 10:07:37;;;;;;;1.50;1.40;;;;;;;12.57;42.89;94143.91;5013088;28;20665;-73
2021/01/05 10:10:04;;;;;;;1.40;1.30;;;;;;;12.71;40.73;94149.34;5012685;28;20424;-73
2021/01/05 10:12:29;;;;;;;2.73;1.50;;;;;;;12.35;43.01;94133.13;5012814;28;20548;-75
2021/01/05 10:14:55;;;;;;;1.70;1.60;;;;;;;12.53;40.89;94135.88;5012740;28;20463;-74
2021/01/05 10:17:20;;;;;;;3.77;1.33;;;;;;;12.92;40.91;94133.38;5012766;28;20209;-74
2021/01/05 10:19:46;;;;;;;1.90;1.20;;;;;;;13.00;38.18;94130.72;5012547;28;20609;-74
2021/01/05 10:22:11;;;;;;;2.20;1.20;;;;;;;13.04;38.21;94134.19;5012796;28;20212;-74
2021/01/05 10:24:37;;;;;;;1.30;1.20;;;;;;;12.69;38.58;94138.25;5012274;28;20173;-75
2021/01/05 10:27:02;;;;;;;1.70;1.30;;;;;;;12.59;40.05;94131.72;5012539;28;20208;-75
2021/01/05 10:29:28;;;;;;;1.40;1.30;;;;;;;12.23;41.81;94138.75;5012392;28;20221;-74
2021/01/05 10:31:53;;;;;;;1.30;1.20;;;;;;;11.98;41.93;94148.53;5012541;28;20185;-75
2021/01/05 10:34:21;;;;;;;1.47;1.37;;;;;;;11.77;41.73;94151.78;5012270;28;20231;-75
2021/01/05 10:37:05;;;;;;;1.40;1.30;;;;;;;11.55;43.16;94145.47;5012370;28;20169;-73
2021/01/05 10:39:31;;;;;;;2.50;1.30;;;;;;;11.61;43.66;94138.66;5012517;28;20428;-73
2021/01/05 10:41:56;;;;;;;1.23;1.00;;;;;;;11.14;41.58;94142.81;5012048;28;20428;-73
2021/01/05 10:44:22;;;;;;;1.53;1.17;;;;;;;10.80;41.29;94145.47;5027448;28;20181;-71
2021/01/05 10:46:47;;;;;;;2.00;1.40;;;;;;;11.03;42.07;94142.69;5011848;28;20173;-75
2021/01/05 10:49:13;;;;;;;1.63;1.10;;;;;;;10.98;42.65;94150.25;5012250;28;20175;-74
2021/01/05 10:51:48;;;;;;;1.00;1.00;;;;;;;11.08;41.00;94154.94;5011977;28;20260;-75
2021/01/05 10:54:15;;;;;;;1.93;1.20;;;;;;;10.72;40.61;94145.75;5011916;28;20246;-73
2021/01/05 10:56:40;;;;;;;1.07;1.00;;;;;;;10.56;41.15;94162.75;5011883;28;20973;-73
2021/01/05 10:59:06;;;;;;;2.10;1.10;;;;;;;10.46;42.28;94142.00;5011924;28;20451;-74
2021/01/05 11:01:31;;;;;;;1.37;1.20;;;;;;;10.32;41.84;94150.63;5011741;28;20184;-75
2021/01/05 11:03:57;;;;;;;1.10;1.00;;;;;;;10.36;43.25;94147.97;5012052;28;20176;-74
2021/01/05 11:06:22;;;;;;;8.10;1.90;;;;;;;10.50;42.21;94145.50;5011692;28;20586;-75
2021/01/05 11:08:48;;;;;;;1.10;1.10;;;;;;;10.46;42.10;94146.59;5011620;28;20176;-76
2021/01/05 11:11:18;;;;;;;1.20;1.00;;;;;;;10.54;42.36;94138.28;5011664;28;20173;-76
2021/01/05 11:13:44;;;;;;;1.00;0.90;;;;;;;10.43;41.30;94137.38;5026287;28;20201;-73
2021/01/05 11:16:09;;;;;;;2.63;1.00;;;;;;;10.39;42.54;94149.16;5011793;28;20926;-74
2021/01/05 11:18:35;;;;;;;1.00;1.00;;;;;;;10.41;42.39;94146.91;5011621;28;20322;-72
2021/01/05 11:21:00;;;;;;;1.10;1.00;;;;;;;10.15;43.07;94156.41;5012305;28;20635;-72
2021/01/05 11:23:26;;;;;;;1.93;1.17;;;;;;;10.16;43.83;94139.31;5011632;28;20177;-72
2021/01/05 11:25:51;;;;;;;1.43;1.10;;;;;;;10.17;42.78;94148.84;5011941;28;20181;-73
2021/01/05 11:28:17;;;;;;;1.07;1.07;;;;;;;10.24;43.58;94153.53;5011414;28;20225;-75
2021/01/05 11:30:42;;;;;;;1.10;1.10;;;;;;;10.06;43.22;94145.25;5011590;28;20267;-73
2021/01/05 11:33:08;;;;;;;1.50;1.27;;;;;;;10.15;43.75;94151.06;5011640;28;20208;-72
2021/01/05 11:35:33;;;;;;;2.67;1.20;;;;;;;10.30;43.04;94155.53;5011455;28;20181;-73
2021/01/05 11:37:59;;;;;;;2.63;1.13;;;;;;;10.41;44.41;94146.91;5012254;28;20225;-72
2021/01/05 11:40:25;;;;;;;4.50;1.97;;;;;;;10.48;43.13;94138.97;5011428;28;20184;-74
2021/01/05 11:42:50;;;;;;;1.17;1.10;;;;;;;10.45;42.99;94150.38;5011661;28;20670;-72
2021/01/05 11:45:16;;;;;;;1.70;1.43;;;;;;;10.39;43.17;94162.50;5013155;28;20556;-72
2021/01/05 11:47:42;;;;;;;3.30;1.33;;;;;;;10.37;43.51;94162.09;5030632;28;20185;-73
2021/01/05 11:50:10;;;;;;;1.23;1.20;;;;;;;10.48;43.51;94161.09;5015295;28;20424;-73